Portada
METAR-TAF:

METAR-TAF

Aeropuertos :

Aeropuerto de Tánger-Ibn Battuta

Tánger, Marruecos

latitud: 35-44N, longitud: 005-54W, altitud: 19 m

Observación

El informe se hizo hace 25 minutos, a las 01:00 UTC
Viento 6 kt del este
Temperatura 12°C
Humedad 94%
Presión 1019 hPa
Visibilidad 10 km o más
sin nubes por debajo de 1500 m y sin presencia de cumulonimbus.

METAR: GMTT 020100Z 08006KT CAVOK 12/11 Q1019 NOSIG

Hora: 02:25 (01:25 UTC)

Pronóstico

El informe se hizo hace 2 horas y 25 minutos, a las 23:00 UTC
Pronóstico válido del 02 a las 00 UTC al 03 a las 06 UTC
Viento 8 kt del este
Visibilidad 10 km o más
Escasas nubes a una altura de 2000 ft
Cielo nuboso a una altura de 8000 ft
Temporalmente
del 02 a las 00 UTC al 02 a las 08 UTC
Visibilidad: 4000 m
Nubes dispersas a una altura de 2000 ft
Cielo nuboso a una altura de 8000 ft
lluvia

TAF: GMTT 012300Z 0200/0306 08008KT 9999 FEW020 BKN080 TEMPO 0200/0208 4000 RA SCT020 BKN080

Observaciones y pronósticos meteorológicos de más de 4000 aeropuertos (mensajes METAR y TAF).

Los puntos amarillos y rojos representan las estaciones disponibles.

Ponga el ratón en el punto deseado para ver el nombre de la estación.

Haga clic para ver las observaciones y los pronósticos meteorológicos.

Para cambiar el mapa : haga clic en los botones verdes con una cruz de color negro para hacer un zoom, en el botón verde con un guión para alejar o en las flechas verdes para mapas adyacentes.


METAR-TAF: